Big Island, Louisiana
Current Conditions -  °F | °C
As of 3:53 PM on Wednesday 17 Dec 2014 (Local Time) from KESF Reporting Station
Few Clouds Few Clouds  
Wind Chill: 57°   Ceiling: Unl
Heat Index: 57°   Visibility: 10mi
Dew Point: 39°   Wind: 6mph
Humidity: 51%   Direction: 70°ENE
Pressure: 30.18"   Gusts: NA
Location:  31.3606°N, 92.2142°W
Report Text: KESF 172153Z AUTO 07005KT 10SM FEW110 14/04 A3018 RMK AO2 SLP221 T01390039
Loading
Personal Weather Stations






























Interactive Weather Map New forecast layout! Learn more

10-Day Weather Forecast

Advertisements
Track Severe Weather on mobile